CRC

Crooked River Challenge - Reynolds Pond

Station: Reynolds Pond - T Race

Distance: 37.756 Miles    

Release: 01-Aug-2020 07:31

Weather Release:    Arrival:

Wind at Release:     Wind at Arrival:

Temp at Release: °    Temp at Arrival: °

Lofts: 191

Birds: 955

Clocked: 954

8 groups 7:31-8:10
Drops Pos Breeder Pigeon Name Color Sex Ent Arrival Speed To Win Elg PdOpB
1 Kolvenbag & Son - PA 1429-IF20-KOLV BC C 1 08:16:56.68 1446.315 00:00:00 Yes
2 Wtj Loft - TX 0115-AU20-WTJ 1453🐅 BBT H 1 08:16:59.47 1444.848 00:00:03 Yes
3 Columba Loft - GA 0251-AU20-LYNC BB H 1 08:17:06.07 1441.406 00:00:09 Yes
4 Tim Byers - OH 1500-AU20-BUCK BC C 1 08:17:06.16 1441.359 00:00:09 Yes
5 Swampdog DLG - MS 0093-IF20-SDOG 109x177 BB H 1 08:17:07.96 1440.421 00:00:11 Yes
6 Do Drop In Loft - NC 0045-IF20-TRC Snowy River WT H 1 08:17:11.14 1438.768 00:00:14 Yes
7 Rachel Olivieri - CA 20535-AU20-LAKE 72 x 1840 BB H 1 08:17:12.22 1438.203 00:00:16 Yes
8 Transilvania Loft - NV 0202-AU20-CIMP BC H 1 08:17:15.33 1436.596 00:00:19 Yes
9 Baldwin & Tillson - NC 0006-AU20-TENT KW-VICTORIA BB C 1 08:17:15.61 1436.451 00:00:19 Yes
10 Greek Connection - SC 0105-AU20-GRK 313 x 303 BB C 1 08:17:17.37 1435.536 00:00:21 Yes
11 R & D Racing 2 - ON 4455-AU20-AA BC C 1 08:17:18.42 1434.999 00:00:22 Yes
12 The X-Loft - IN 0098-AU20-XLFT 846-7595(dau YP2) BB H 1 08:17:21.59 1433.358 00:00:25 Yes
13 Dfm#1 - MO 1441-IF20-BB BC C 1 08:17:23.40 1432.426 00:00:27 Yes
14 John Karnofel - CA 0222-AU20-KFL The Chief BB C 1 08:17:24.66 1431.783 00:00:28 Yes
15 Adams Loft - PA 0095-IF20-FSJ BC H 1 08:17:25.14 1431.536 00:00:28 Yes
16 Iditarod Loft - MT 7511-AU20-AA BB H 1 08:17:27.19 1430.483 00:00:31 Yes
17 Chai Suen Siu - NY 0290-IF20-SLI BB H 1 08:17:27.24 1430.458 00:00:31 Yes
18 ***bird Love To Fly*** - MN 1356914-BE20-BELG Out of Germany 🇩🇪 BBWF C 1 08:17:28.27 1429.929 00:00:32 Yes
19 Arch Haven Loft - IN 2002-AU20-ARCH BB H 1 08:17:28.31 1429.909 00:00:32 Yes
20 Rampage Racing - TX 9438-AU20-AA BBT H 1 08:17:28.49 1429.811 00:00:32 Yes
21 Highland Loft - NY 2126-AU20-DZ 3262/17177 BB H 1 08:17:28.67 1429.724 00:00:32 Yes
22 Lian Loft Vladimir 59 Perez - FL 2034-AU20-LIAN Lulú BBT H 1 08:17:31.23 1428.408 00:00:35 Yes
23 Swampdog DLG - MS 0098-IF20-SDOG 150x151 BBSP C 2 08:17:32.45 1427.784 00:00:36 Yes
24 Nanez Family Loft - WI 0009-AU20-NANZ BBWF H 1 08:17:33.48 1427.262 00:00:37 Yes
25 Va. Lin Loft - GA 61885-AU20-ARPU 北卡X TonyLoft 🐺🐺 BB C 1 08:17:33.50 1427.247 00:00:37 Yes
26 Chai Suen Siu - NY 0287-IF20-SLI BB H 2 08:17:36.07 1425.935 00:00:39 Yes
27 Wise Loft - IL 0007-AU20-WISE BB H 1 08:17:36.11 1425.920 00:00:39 Yes
28 Zheng Family Loft - NY 0999-AU20-ZFL Bentley 999 SLT H 1 08:17:38.39 1424.753 00:00:42 Yes
29 Lin Family Loft - GA 8976-AU20-LIN 林 Lin 1089 X Wang 105 BB C 1 08:17:39.43 1424.229 00:00:43 Yes
30 Sooner Challenge - OK 40170-AU20-ARPU 8542 X 8521 BB H 1 08:17:39.87 1424.005 00:00:43 Yes
31 Ken Family Loft - FL 0521-AU20-XKL BB C 1 08:17:41.88 1422.978 00:00:45 Yes
32 Andy Owen - GA 0012-AU20-OWEN BB H 1 08:17:41.93 1422.958 00:00:45 Yes
33 Jimmy Zheng Loft - MS 0072-AU20-JZ BC H 1 08:17:42.24 1422.796 00:00:46 Yes
34 Eastern Pearl Loft - VA 0719-AU20-EPL 🈚️量719 BB H 1 08:17:42.61 1422.608 00:00:46 Yes
35 Irishsyndicatelofts - AZ 1069-AU20-IRIS 7th Star BC H 1 08:17:44.58 1421.608 00:00:48 Yes
36 Igor & Sons Loft - OR 0202-AU20-OTC BCPD H 1 08:17:45.62 1421.087 00:00:49 Yes
37 Morningside Racing Loft - TX 1240-AU20-MSRL 7240 (1148) X 1063 (7013) BB C 1 08:17:47.64 1420.064 00:00:51 Yes
38 B.B.& W. - CA 20026-AU20-ARPU 03-02 /1 BB H 1 08:17:49.38 1419.185 00:00:53 Yes
39 Rachel Olivieri - CA 20536-AU20-LAKE 72 x 1840 BB H 2 08:17:50.31 1418.710 00:00:54 Yes
40 Flying Glory Loft - WA 28103-AU20-ARPU BB H 1 08:17:50.40 1418.664 00:00:54 Yes
41 Sun Loft - MA 8811-IF20-SUN BC H 1 08:17:51.43 1418.150 00:00:55 Yes
42 Greek Connection - SC 0140-AU20-GRK Beast 3 BB H 2 08:17:51.45 1418.140 00:00:55 Yes
43 R & S Loft Of Tx - TX 0103-AU20-RS BB C 1 08:17:53.92 1416.895 00:00:57 Yes
44 Ez Syndicate - MN 5463-AU20-ARPU Fatsby BB H 1 08:17:57.43 1415.125 00:01:01 Yes
45 Han Lu Loft - TX 0226-AU20-LUHA BB H 1 08:17:58.75 1414.462 00:01:02 Yes
46 Genesis Syndicate Loft - AZ 0501-AU20-GEN BBSP C 1 08:18:00.25 1413.715 00:01:04 Yes
47 All Glory To God - NM 2535-AU20-ARPU BB H 1 08:18:01.35 1413.163 00:01:05 Yes
48 Wolf Den - IL 0086-AU20-FAM BBSP H 1 08:18:01.72 1412.978 00:01:05 Yes
49 Shi Loft - PA 1715-IF20-ERIE BBSP H 1 08:18:05.03 1411.318 00:01:08 Yes
50 A-Lo Loft/Nemelka - UT 0003-AU20-ALOL ☯️341☯️ BB H 1 08:18:07.55 1410.065 00:01:11 Yes
51 Swampdog DLG - MS 0074-AU20-SDOG 381x285 BB H 3 08:18:08.58 1409.546 00:01:12 Yes
52 Ed Skwiat - IN 0909-AU20-VITA BB C 1 08:18:08.61 1409.536 00:01:12 Yes
53 Marengo Creek Farms - AL 3590-AU20-MCF BB H 1 08:18:09.80 1408.939 00:01:13 Yes
54 Lin Family Loft - GA 8977-AU20-LIN 林 DV 1883 X Lin 1096 BB C 2 08:18:10.82 1408.431 00:01:14 Lost
55 Balikbayan Express - WA 66505-AU20-ARPU BB H 1 08:18:12.45 1407.620 00:01:16 Yes
56 Baldwin & Tillson - NC 0008-AU20-TENT KW-585 BC H 2 08:18:12.91 1407.397 00:01:16 Yes
57 ***bird Love To Fly*** - MN 0050-AU20-BDLV 2227x6717 Big girl 👧 BB H 2 08:18:13.65 1407.029 00:01:17 Yes
58 Pleasant Task Farm - PA 0030-AU20-PTF Mr Blue Sky X 1121 BCWF C 1 08:18:15.76 1405.982 00:01:19 Yes
59 R & D Racing 2 - ON 4405-AU20-AA BB C 2 08:18:16.79 1405.467 00:01:20 Yes
60 Marengo Creek Farms - AL 3606-AU20-MCF BB C 2 08:18:17.03 1405.348 00:01:20 Yes
61 Highland Loft - NY 2014-AU20-DZ 496. X. 51 BB H 2 08:18:19.08 1404.333 00:01:22 Yes
62 Zheng Family Loft - NY 0995-AU20-ZFL Bentley 995 BC H 2 08:18:23.19 1402.308 00:01:27 Yes
63 Peach Classic - GA 72525-IF20-E BC H 1 08:18:24.29 1401.761 00:01:28 Yes
64 Rachel Olivieri - CA 20521-AU20-LAKE 18 x G BB H 3 08:18:26.27 1400.786 00:01:30 Yes
65 Kamp - WA 5211-AU20-LKC BCSP H 1 08:18:29.13 1399.385 00:01:32 Yes
66 Rachel Olivieri - CA 20527-AU20-LAKE G x 1841 BCWF C 4 08:18:31.21 1398.364 00:01:35 Yes
67 Irishsyndicatelofts - AZ 1009-AU20-IRIS 7942 Hoosier Ace BB H 2 08:18:32.23 1397.864 00:01:36 Yes
68 Highland Loft - NY 2112-AU20-DZ 46429/46411 BC C 3 08:18:32.25 1397.849 00:01:36 Yes
69 Xiao Loft - WI 3112-AU20-RAC BB C 1 08:18:34.24 1396.879 00:01:38 Yes
70 Lin Family Loft - GA 8980-AU20-LIN 林 Warrior X WOLFGANG BBWF H 3 08:18:35.26 1396.380 00:01:39 Yes
71 Ken Family Loft - FL 0512-AU20-XKL BB C 2 08:18:35.30 1396.361 00:01:39 Yes
72 Sunshine Loft 2 - SC 0501-AU20-GRPC Pak 59-Pak 70 BC C 1 08:18:35.33 1396.341 00:01:39 Yes
73 Jsrl - CA 15212-AU20-JEDD BB C 1 08:18:36.99 1395.530 00:01:40 Yes
74 John V. Partridge - CA 2008-AU20-PASO Mr. Redwood RC C 1 08:18:38.04 1395.022 00:01:41 Yes
75 A P C Loft - TX 20019-AU20-APC BC H 1 08:18:40.74 1393.705 00:01:44 Yes
76 Tian Loft - FL 30166-AU20-ARPU BBSP H 1 08:18:41.78 1393.199 00:01:45 Yes
77 Cartel Morelia - TX 20736-AU20-SYV SIL C 1 08:18:42.57 1392.810 00:01:46 Yes
78 Jimmy Zheng Loft - MS 0087-AU20-JZ BBT H 2 08:18:43.61 1392.304 00:01:47 Yes
79 Bruce Daehn - FL 0416-AU20-NWFI BBWF H 1 08:18:44.46 1391.891 00:01:48 Yes
80 R M C Loft - CA 300123-AU20-RMC BC C 1 08:18:47.21 1390.556 00:01:51 Yes
81 Wise Loft - IL 0038-AU20-WISE SIWF H 2 08:18:48.18 1390.090 00:01:51 Yes
82 S Procopoi Loft - GA 41850-AU20-ARPU Angela BC H 1 08:18:49.20 1389.591 00:01:53 Yes
83 Bieche-Stevenson - CA 0061-AU20-BIEC DC H 1 08:18:51.34 1388.560 00:01:55 Yes
84 Nanez Family Loft - WI 0053-AU20-NANZ BB H 2 08:18:52.58 1387.956 00:01:56 Yes
85 Bruce Daehn - FL 0401-AU20-NWFI BB H 2 08:18:52.87 1387.816 00:01:56 Yes
86 Horst Thiel - CA 4611-AU20-SRP BBSP H 1 08:18:56.72 1385.963 00:02:00 Yes
87 Sam Haslem - UT 0111-AU20-SAM BC C 1 08:18:58.79 1384.967 00:02:02 Yes
88 R & D Racing 2 - ON 4402-AU20-AA BBSP C 3 08:19:04.34 1382.297 00:02:08 Yes
89 The X-Loft - IN 0097-AU20-XLFT 846-7595(dau YP2) BB C 2 08:19:07.64 1380.717 00:02:11 Yes
90 Baldwin & Tillson - NC 0141-AU20-TENT (348)7024-6205(4135) BB C 3 08:19:08.94 1380.096 00:02:12 Yes
91 Ganus Family Loft - IN 0812-AU20-GFL SHOT OF JACK DANIEL BBWF C 1 08:19:11.61 1378.822 00:02:15 Yes
92 Lian Loft Vladimir 59 Perez - FL 2005-AU20-LIAN The Face For Grandfather BB C 2 08:19:14.90 1377.260 00:02:18 Yes
93 A P C Loft - TX 20062-AU20-APC BBPD H 2 08:19:15.93 1376.770 00:02:19 Yes
94 The X-Loft - IN 0099-AU20-XLFT 1018-DV 862 BCT H 3 08:19:16.01 1376.732 00:02:19 Yes
95 Christopher Loft - UT 20047-AU20-GS BB H 1 08:19:16.92 1376.294 00:02:20 Yes
96 Tian Loft - FL 30170-AU20-ARPU BBWF H 2 08:19:17.96 1375.805 00:02:21 Yes
97 Greek Connection - SC 0101-AU20-GRK ATLANTIS BBWF H 3 08:19:17.97 1375.796 00:02:21 Yes
98 Aztec Loft - DE 0136-AU20-AZTC BB H 1 08:19:23.23 1373.308 00:02:27 Yes
99 Kolvenbag & Son - PA 1419-IF20-KOLV BC C 2 08:19:26.33 1371.838 00:02:30 Yes
100 Greek Connection - SC 0107-AU20-GRK ROBERT BB C 4 08:19:27.61 1371.239 00:02:31 Yes

There are 949 bird records

Note: These Race Results are unofficial and subject to change until verified by the Race Committee and declared final.